createdAt,value
2022-10-18T04:12:40.783Z,15.04
2022-10-18T04:15:08.858Z,15.06
2022-10-18T04:17:36.936Z,14.92
2022-10-18T04:20:05.249Z,14.71
2022-10-18T04:22:33.074Z,14.59
2022-10-18T04:25:00.727Z,14.34
2022-10-18T04:27:28.525Z,14.14
2022-10-18T04:29:56.318Z,14.22
2022-10-18T04:32:24.539Z,14.08
2022-10-18T04:34:51.783Z,14.21
2022-10-18T04:37:18.976Z,14.28
2022-10-18T04:39:51.360Z,14.20
2022-10-18T04:42:22.085Z,14.30
2022-10-18T04:44:49.837Z,14.47
2022-10-18T04:47:17.955Z,14.51
2022-10-18T04:49:45.184Z,14.55
2022-10-18T04:52:12.508Z,14.51
2022-10-18T04:54:40.171Z,14.55
2022-10-18T04:57:07.755Z,14.69
2022-10-18T04:59:35.034Z,14.62
2022-10-18T05:04:34.410Z,14.69
2022-10-18T05:07:02.789Z,14.56
2022-10-18T05:09:30.060Z,14.60
2022-10-18T05:11:57.252Z,14.44
2022-10-18T05:14:24.971Z,14.63
2022-10-18T05:16:52.737Z,14.55
2022-10-18T05:19:20.191Z,14.54
2022-10-18T05:21:47.993Z,14.68
2022-10-18T05:24:15.211Z,14.72
2022-10-18T05:26:42.472Z,14.51
2022-10-18T05:29:09.870Z,14.44
2022-10-18T05:31:37.420Z,14.51
2022-10-18T05:34:04.819Z,14.43
2022-10-18T05:36:32.124Z,14.52
2022-10-18T05:39:02.432Z,14.54
2022-10-18T05:41:32.960Z,14.56
2022-10-18T05:44:04.675Z,14.51
2022-10-18T05:46:32.116Z,14.55
2022-10-18T05:48:59.320Z,14.56
2022-10-18T05:51:26.781Z,14.64
2022-10-18T05:53:54.772Z,14.77
2022-10-18T05:56:22.096Z,14.59
2022-10-18T05:58:51.196Z,14.50
2022-10-18T06:01:19.760Z,14.47
2022-10-18T06:03:47.213Z,14.31
2022-10-18T06:06:15.485Z,14.21
2022-10-18T06:08:43.806Z,14.29
2022-10-18T06:11:16.922Z,14.42
2022-10-18T06:13:47.208Z,14.38
2022-10-18T06:16:16.981Z,14.34
2022-10-18T06:18:48.846Z,14.33
2022-10-18T06:21:16.493Z,14.50
2022-10-18T06:23:48.285Z,14.60
2022-10-18T06:26:16.004Z,14.66
2022-10-18T06:28:44.828Z,14.59
2022-10-18T06:31:13.291Z,14.58
2022-10-18T06:33:41.409Z,14.79
2022-10-18T06:36:14.800Z,14.67
2022-10-18T06:38:42.416Z,14.81
2022-10-18T06:41:10.529Z,14.68
2022-10-18T06:43:37.830Z,14.97
2022-10-18T06:46:08.024Z,15.11
2022-10-18T06:48:36.747Z,15.20
2022-10-18T06:51:06.877Z,15.12
2022-10-18T06:53:44.099Z,15.06
2022-10-18T06:56:16.292Z,14.99
2022-10-18T06:58:43.866Z,15.03
2022-10-18T07:01:17.376Z,15.25
2022-10-18T07:03:46.705Z,15.33
2022-10-18T07:06:16.977Z,15.17
2022-10-18T07:08:44.769Z,15.27
2022-10-18T07:11:21.476Z,15.55
2022-10-18T07:13:48.850Z,15.56
2022-10-18T07:16:19.423Z,15.80
2022-10-18T07:18:51.451Z,15.83
2022-10-18T07:21:21.944Z,15.76
2022-10-18T07:23:50.508Z,15.79
2022-10-18T07:26:21.715Z,15.82
2022-10-18T07:28:55.318Z,15.87
2022-10-18T07:31:23.676Z,15.73
2022-10-18T07:33:51.896Z,15.86
2022-10-18T07:36:21.290Z,15.92
2022-10-18T07:38:49.833Z,16.09
2022-10-18T07:41:17.412Z,16.14
2022-10-18T07:43:50.848Z,16.29
2022-10-18T07:46:19.507Z,16.29
2022-10-18T07:48:47.279Z,16.35
2022-10-18T07:51:14.790Z,16.58
2022-10-18T07:53:42.380Z,16.46
2022-10-18T07:56:16.193Z,16.58
2022-10-18T07:58:54.144Z,16.61
2022-10-18T08:01:24.059Z,16.75
2022-10-18T08:03:53.182Z,16.77
2022-10-18T08:06:22.856Z,16.86
2022-10-18T08:08:50.792Z,16.93
2022-10-18T08:11:21.011Z,17.17
2022-10-18T08:13:49.099Z,17.23
2022-10-18T08:16:20.623Z,17.20
2022-10-18T08:18:48.008Z,17.22
2022-10-18T08:21:17.255Z,17.04
2022-10-18T08:23:44.987Z,17.24
2022-10-18T08:26:15.737Z,17.37
2022-10-18T08:28:49.109Z,17.49
2022-10-18T08:31:21.490Z,17.30
2022-10-18T08:33:48.983Z,17.32
2022-10-18T08:36:17.092Z,17.33
2022-10-18T08:38:44.563Z,17.48
2022-10-18T08:41:33.759Z,17.43
2022-10-18T08:44:24.841Z,17.51
2022-10-18T08:47:00.329Z,17.43
2022-10-18T08:49:34.636Z,17.86
2022-10-18T08:52:06.478Z,17.94
2022-10-18T08:54:39.465Z,18.06
2022-10-18T08:57:18.224Z,18.09
2022-10-18T08:59:45.979Z,18.06
2022-10-18T09:02:39.424Z,18.24
2022-10-18T09:05:34.300Z,18.00
2022-10-18T09:08:30.880Z,18.04
2022-10-18T09:11:26.756Z,18.09
2022-10-18T09:14:22.590Z,18.17
2022-10-18T09:17:20.558Z,18.51
2022-10-18T09:20:19.830Z,18.67
2022-10-18T09:23:15.684Z,18.99
2022-10-18T09:25:51.999Z,19.15
2022-10-18T09:28:46.781Z,19.04
2022-10-18T09:31:41.092Z,19.19
2022-10-18T09:34:22.816Z,19.26
2022-10-18T09:36:51.703Z,19.41
2022-10-18T09:39:24.900Z,19.38
2022-10-18T09:42:00.186Z,19.59
2022-10-18T09:44:34.492Z,19.29
2022-10-18T09:47:06.337Z,19.38
2022-10-18T09:49:40.353Z,19.53
2022-10-18T09:52:18.719Z,19.53
2022-10-18T09:55:15.149Z,19.67
2022-10-18T09:57:55.453Z,19.87
2022-10-18T10:00:31.054Z,19.86
2022-10-18T10:03:00.928Z,20.36
2022-10-18T10:05:28.251Z,20.83
2022-10-18T10:07:59.894Z,20.41
2022-10-18T10:10:29.722Z,20.25
2022-10-18T10:13:03.726Z,20.43
2022-10-18T10:15:36.953Z,20.57
2022-10-18T10:18:25.220Z,21.01
2022-10-18T10:20:54.372Z,20.57
2022-10-18T10:23:26.945Z,20.62
2022-10-18T10:26:03.792Z,21.25
2022-10-18T10:28:36.739Z,21.38
2022-10-18T10:31:24.901Z,21.59
2022-10-18T10:34:18.219Z,21.49
2022-10-18T10:36:48.497Z,21.46
2022-10-18T10:39:19.260Z,21.66
2022-10-18T10:41:55.660Z,22.19
2022-10-18T10:44:26.974Z,22.12
2022-10-18T10:46:54.918Z,22.23
2022-10-18T10:49:42.496Z,22.24
2022-10-18T10:52:27.656Z,22.20
2022-10-18T10:57:48.903Z,22.76
2022-10-18T11:00:37.616Z,22.26
2022-10-18T11:03:28.559Z,22.31
2022-10-18T11:06:00.324Z,22.17
2022-10-18T11:08:33.979Z,22.50
2022-10-18T11:11:19.266Z,22.24
2022-10-18T11:14:07.380Z,22.95
2022-10-18T11:16:57.777Z,22.68
2022-10-18T11:20:03.316Z,22.38
2022-10-18T11:22:38.601Z,23.29
2022-10-18T11:25:08.269Z,22.94
2022-10-18T11:27:46.627Z,23.50
2022-10-18T11:30:55.433Z,23.24
2022-10-18T11:34:07.103Z,23.37
2022-10-18T11:36:32.106Z,23.11
2022-10-18T11:39:30.473Z,23.40
2022-10-18T11:42:24.544Z,23.73
2022-10-18T11:45:10.640Z,23.55
2022-10-18T11:47:52.265Z,23.68
2022-10-18T11:50:53.825Z,23.65
2022-10-18T11:53:38.471Z,23.94
2022-10-18T11:56:12.159Z,23.75
2022-10-18T11:59:06.549Z,23.89
2022-10-18T12:02:03.501Z,23.97
2022-10-18T12:04:39.179Z,23.82
2022-10-18T12:07:21.190Z,23.93
2022-10-18T12:09:54.801Z,24.15
2022-10-18T12:12:30.024Z,24.10
2022-10-18T12:15:02.998Z,24.07
2022-10-18T12:17:49.914Z,24.05
2022-10-18T12:20:24.856Z,24.04
2022-10-18T12:22:59.289Z,24.45
2022-10-18T12:25:33.799Z,24.81
2022-10-18T12:28:36.303Z,24.86
2022-10-18T12:31:08.213Z,24.33
2022-10-18T12:33:40.173Z,24.75
2022-10-18T12:36:23.393Z,25.19
2022-10-18T12:38:58.645Z,25.28
2022-10-18T12:41:32.356Z,24.75
2022-10-18T12:44:19.103Z,24.69
2022-10-18T12:46:54.902Z,24.76
2022-10-18T12:49:29.816Z,24.50
2022-10-18T12:52:01.896Z,24.46
2022-10-18T12:54:34.981Z,24.78
2022-10-18T12:57:05.835Z,25.00
2022-10-18T12:59:33.015Z,25.79
2022-10-18T13:02:00.322Z,25.34
2022-10-18T13:04:27.595Z,25.55
2022-10-18T13:07:00.765Z,25.43
2022-10-18T13:09:44.450Z,25.35
2022-10-18T13:12:12.343Z,25.39
2022-10-18T13:15:24.732Z,25.52
2022-10-18T13:18:03.840Z,25.14
2022-10-18T13:20:31.627Z,25.28
2022-10-18T13:23:31.606Z,25.57
2022-10-18T13:26:23.885Z,29.63
2022-10-18T13:28:57.307Z,30.84
2022-10-18T13:31:42.349Z,34.60
2022-10-18T13:34:24.959Z,35.25
2022-10-18T13:37:05.129Z,36.09
2022-10-18T13:39:33.661Z,33.79
2022-10-18T13:42:01.303Z,31.98
2022-10-18T13:44:37.713Z,31.64
2022-10-18T13:47:05.160Z,32.94
2022-10-18T13:49:38.542Z,32.44
2022-10-18T13:52:18.094Z,30.69
2022-10-18T13:54:54.519Z,30.22
2022-10-18T13:57:24.400Z,30.82
2022-10-18T14:00:19.578Z,32.36
2022-10-18T14:03:51.509Z,34.84
2022-10-18T14:06:22.577Z,33.11
2022-10-18T14:08:56.256Z,34.74
2022-10-18T14:11:45.978Z,34.19
2022-10-18T14:14:41.059Z,33.94
2022-10-18T14:17:15.360Z,31.53
2022-10-18T14:19:52.242Z,28.07
2022-10-18T14:22:38.393Z,26.75
2022-10-18T14:25:21.033Z,26.26
2022-10-18T14:27:50.953Z,26.37
2022-10-18T14:30:21.267Z,26.21
2022-10-18T14:32:51.868Z,26.31
2022-10-18T14:35:32.410Z,26.47
2022-10-18T14:38:00.591Z,26.16
2022-10-18T14:40:40.736Z,26.33
2022-10-18T14:43:19.182Z,26.15
2022-10-18T14:45:46.724Z,26.30
2022-10-18T14:48:16.820Z,26.01
2022-10-18T14:50:48.605Z,26.00
2022-10-18T14:53:19.169Z,25.81
2022-10-18T14:56:04.584Z,25.81
2022-10-18T14:58:32.704Z,25.77
2022-10-18T15:01:00.612Z,25.43
2022-10-18T15:03:28.505Z,25.26
2022-10-18T15:05:59.619Z,25.67
2022-10-18T15:08:35.957Z,25.68
2022-10-18T15:11:03.609Z,25.52
2022-10-18T15:13:32.277Z,25.75
2022-10-18T15:16:00.074Z,26.18
2022-10-18T15:18:28.543Z,28.59
2022-10-18T15:21:21.313Z,30.20
2022-10-18T15:23:49.980Z,29.98
2022-10-18T15:26:29.676Z,29.23
2022-10-18T15:29:01.445Z,29.00
2022-10-18T15:31:35.799Z,30.24
2022-10-18T15:34:14.940Z,30.46
2022-10-18T15:39:25.766Z,28.81
2022-10-18T15:41:57.813Z,29.09
2022-10-18T15:44:31.563Z,28.47
2022-10-18T15:47:21.340Z,27.32
2022-10-18T15:49:58.412Z,26.98
2022-10-18T15:52:39.771Z,27.43
2022-10-18T15:55:32.920Z,26.51
2022-10-18T15:58:17.401Z,26.16
2022-10-18T16:00:46.539Z,25.93
2022-10-18T16:03:15.397Z,24.96
2022-10-18T16:05:42.895Z,24.72
2022-10-18T16:08:25.172Z,24.51
2022-10-18T16:10:52.403Z,24.36
2022-10-18T16:13:20.211Z,24.12
2022-10-18T16:15:47.614Z,23.81
2022-10-18T16:18:17.827Z,23.56
2022-10-18T16:20:47.768Z,23.32
2022-10-18T16:23:22.028Z,22.98
2022-10-18T16:25:50.459Z,22.68
2022-10-18T16:28:20.820Z,22.48
2022-10-18T16:30:55.731Z,22.27
2022-10-18T16:33:24.949Z,22.16
2022-10-18T16:35:53.195Z,22.09
2022-10-18T16:38:35.172Z,22.03
2022-10-18T16:41:05.498Z,21.89
2022-10-18T16:43:34.862Z,21.85
2022-10-18T16:46:04.019Z,21.77
2022-10-18T16:48:31.578Z,21.65
2022-10-18T16:50:59.234Z,21.57
2022-10-18T16:53:28.043Z,21.43
2022-10-18T16:56:01.584Z,21.23
2022-10-18T16:58:32.025Z,21.15
2022-10-18T17:01:01.819Z,21.08
2022-10-18T17:03:31.660Z,21.02
2022-10-18T17:05:58.933Z,21.01
2022-10-18T17:08:28.145Z,20.98
2022-10-18T17:10:58.587Z,21.00
2022-10-18T17:13:26.146Z,20.99
2022-10-18T17:15:53.965Z,20.86
2022-10-18T17:18:26.226Z,20.74
2022-10-18T17:20:54.130Z,20.64
2022-10-18T17:23:21.749Z,20.61
2022-10-18T17:26:04.724Z,20.54
2022-10-18T17:28:38.384Z,20.43
2022-10-18T17:31:07.732Z,20.40
2022-10-18T17:33:35.659Z,20.34
2022-10-18T17:36:04.112Z,20.27
2022-10-18T17:38:31.633Z,20.25
2022-10-18T17:40:59.253Z,20.18
2022-10-18T17:43:26.604Z,20.07
2022-10-18T17:45:56.173Z,19.98
2022-10-18T17:48:24.596Z,19.95
2022-10-18T17:50:52.356Z,19.91
2022-10-18T17:53:22.799Z,19.84
2022-10-18T17:55:50.536Z,19.79
2022-10-18T17:58:18.209Z,19.76
2022-10-18T18:00:45.984Z,19.71
2022-10-18T18:03:14.178Z,19.70
2022-10-18T18:05:41.567Z,19.67
2022-10-18T18:08:09.255Z,19.65
2022-10-18T18:10:36.513Z,19.60
2022-10-18T18:13:04.301Z,19.55
2022-10-18T18:15:32.137Z,19.47
2022-10-18T18:17:59.858Z,19.46
2022-10-18T18:20:27.230Z,19.55
2022-10-18T18:22:54.543Z,19.61
2022-10-18T18:25:21.803Z,19.45
2022-10-18T18:27:50.057Z,19.41
2022-10-18T18:30:17.898Z,19.32
2022-10-18T18:32:45.443Z,19.24
2022-10-18T18:35:13.281Z,19.24
2022-10-18T18:37:40.557Z,19.00
2022-10-18T18:40:09.428Z,19.10
2022-10-18T18:42:37.774Z,19.10
2022-10-18T18:45:05.526Z,19.02
2022-10-18T18:47:35.428Z,19.00
2022-10-18T18:50:02.740Z,18.95
2022-10-18T18:52:30.943Z,18.90
2022-10-18T18:54:58.811Z,18.90
2022-10-18T18:57:26.071Z,18.84
2022-10-18T18:59:53.272Z,18.83
2022-10-18T19:02:20.528Z,18.80
2022-10-18T19:04:48.389Z,18.80
2022-10-18T19:07:15.786Z,18.73
2022-10-18T19:09:44.627Z,18.67
2022-10-18T19:12:11.833Z,18.61
2022-10-18T19:14:39.114Z,18.58
2022-10-18T19:17:07.841Z,18.57
2022-10-18T19:19:35.541Z,18.56
2022-10-18T19:22:09.496Z,18.50
2022-10-18T19:24:37.437Z,18.41
2022-10-18T19:27:09.612Z,18.37
2022-10-18T19:29:38.782Z,18.31
2022-10-18T19:32:08.753Z,18.31
2022-10-18T19:34:36.459Z,18.29
2022-10-18T19:37:03.972Z,18.28
2022-10-18T19:39:33.744Z,18.25
2022-10-18T19:42:05.211Z,18.22
2022-10-18T19:44:35.800Z,18.23
2022-10-18T19:47:07.702Z,18.16
2022-10-18T19:49:35.492Z,18.17
2022-10-18T19:52:02.757Z,18.10
2022-10-18T19:54:30.599Z,18.06
2022-10-18T19:56:57.943Z,18.01
2022-10-18T19:59:26.392Z,18.00
2022-10-18T20:01:54.117Z,17.99
2022-10-18T20:04:21.673Z,17.89
2022-10-18T20:06:50.624Z,17.89
2022-10-18T20:09:20.754Z,18.21
2022-10-18T20:11:48.653Z,18.24
2022-10-18T20:14:15.889Z,18.08
2022-10-18T20:16:43.176Z,18.21
2022-10-18T20:19:10.516Z,18.25
2022-10-18T20:21:39.328Z,18.03
2022-10-18T20:24:09.253Z,18.19
2022-10-18T20:26:37.120Z,18.19
2022-10-18T20:29:05.062Z,18.23
2022-10-18T20:31:35.796Z,18.05
2022-10-18T20:34:08.397Z,17.98
2022-10-18T20:36:36.668Z,17.73
2022-10-18T20:39:04.490Z,17.65
2022-10-18T20:41:34.605Z,17.57
2022-10-18T20:44:08.377Z,17.51
2022-10-18T20:46:37.011Z,17.34
2022-10-18T20:49:07.063Z,17.38
2022-10-18T20:51:35.219Z,17.40
2022-10-18T20:56:35.537Z,17.31
2022-10-18T20:59:06.053Z,17.28
2022-10-18T21:01:35.500Z,17.26
2022-10-18T21:04:08.013Z,17.25
2022-10-18T21:06:40.321Z,17.29
2022-10-18T21:09:13.385Z,17.32
2022-10-18T21:11:43.247Z,17.28
2022-10-18T21:14:19.291Z,17.25
2022-10-18T21:16:48.059Z,17.23
2022-10-18T21:19:18.415Z,17.17
2022-10-18T21:21:47.686Z,17.10
2022-10-18T21:24:15.804Z,17.12
2022-10-18T21:26:43.648Z,17.08
2022-10-18T21:29:12.875Z,16.97
2022-10-18T21:31:42.128Z,16.92
2022-10-18T21:34:17.554Z,16.94
2022-10-18T21:36:48.455Z,16.94
2022-10-18T21:39:20.044Z,16.89
2022-10-18T21:41:48.102Z,16.89
2022-10-18T21:44:16.462Z,16.89
2022-10-18T21:46:44.478Z,16.85
2022-10-18T21:49:12.427Z,16.83
2022-10-18T21:51:40.603Z,16.73
2022-10-18T21:54:13.212Z,16.68
2022-10-18T21:56:40.873Z,16.75
2022-10-18T21:59:08.217Z,16.69
